Terminal Aerodrome Forecast
Issued by NWS Grand Forks, ND

Home | Current Version | Previous Version | Text Only | Print | Product List | Glossary On
Versions: 1 2 3 4 5 6 7 8 9 10 11 12 13 14 15 16
000
FTUS43 KFGF 230520
TAFFAR
TAF
KFAR 230520Z 2306/2406 34008KT P6SM VCSH OVC040
     FM231200 36010KT P6SM VCSH OVC020
     FM231800 01011KT P6SM OVC035
     FM240200 02006KT P6SM BKN070=

USA.gov is the U.S. government's official web portal to all federal, state and local government web resources and services.